sensor_id;sensor_type;location;lat;lon;timestamp;temperature;humidity
1594;DHT22;790;47.000;16.084;2022-12-16T00:01:29;2.40;99.90
1594;DHT22;790;47.000;16.084;2022-12-16T00:07:51;2.60;99.90
1594;DHT22;790;47.000;16.084;2022-12-16T00:18:40;2.60;99.90
1594;DHT22;790;47.000;16.084;2022-12-16T00:24:48;2.40;99.90
1594;DHT22;790;47.000;16.084;2022-12-16T00:30:56;2.40;99.90
1594;DHT22;790;47.000;16.084;2022-12-16T00:37:05;2.30;99.90
1594;DHT22;790;47.000;16.084;2022-12-16T00:43:33;2.40;99.90
1594;DHT22;790;47.000;16.084;2022-12-16T00:49:41;2.30;99.90
1594;DHT22;790;47.000;16.084;2022-12-16T00:55:51;2.20;99.90
1594;DHT22;790;47.000;16.084;2022-12-16T01:01:58;2.30;99.90
1594;DHT22;790;47.000;16.084;2022-12-16T01:08:06;2.50;99.90
1594;DHT22;790;47.000;16.084;2022-12-16T01:18:40;2.60;99.90
1594;DHT22;790;47.000;16.084;2022-12-16T01:25:02;2.50;99.90
1594;DHT22;790;47.000;16.084;2022-12-16T01:31:24;2.50;99.90
1594;DHT22;790;47.000;16.084;2022-12-16T01:37:46;2.30;99.90
1594;DHT22;790;47.000;16.084;2022-12-16T01:44:16;2.30;99.90
1594;DHT22;790;47.000;16.084;2022-12-16T01:50:38;2.40;99.90
1594;DHT22;790;47.000;16.084;2022-12-16T01:57:04;2.60;99.90
1594;DHT22;790;47.000;16.084;2022-12-16T02:03:28;2.60;99.90
1594;DHT22;790;47.000;16.084;2022-12-16T02:09:51;2.40;99.90
1594;DHT22;790;47.000;16.084;2022-12-16T02:31:32;2.50;99.90
1594;DHT22;790;47.000;16.084;2022-12-16T02:38:10;2.50;99.90
1594;DHT22;790;47.000;16.084;2022-12-16T02:44:38;2.60;99.90
1594;DHT22;790;47.000;16.084;2022-12-16T02:51:03;2.60;99.90
1594;DHT22;790;47.000;16.084;2022-12-16T02:57:40;2.70;99.90
1594;DHT22;790;47.000;16.084;2022-12-16T03:04:08;2.70;99.90
1594;DHT22;790;47.000;16.084;2022-12-16T03:10:34;2.70;99.90
1594;DHT22;790;47.000;16.084;2022-12-16T03:21:13;2.80;99.90
1594;DHT22;790;47.000;16.084;2022-12-16T03:27:28;2.90;99.90
1594;DHT22;790;47.000;16.084;2022-12-16T03:33:44;2.80;99.90
1594;DHT22;790;47.000;16.084;2022-12-16T03:39:58;2.80;99.90
1594;DHT22;790;47.000;16.084;2022-12-16T03:46:08;2.90;99.90
1594;DHT22;790;47.000;16.084;2022-12-16T03:52:17;2.90;99.90
1594;DHT22;790;47.000;16.084;2022-12-16T03:58:25;2.90;99.90
1594;DHT22;790;47.000;16.084;2022-12-16T04:04:34;2.90;99.90
1594;DHT22;790;47.000;16.084;2022-12-16T04:10:41;2.90;99.90
1594;DHT22;790;47.000;16.084;2022-12-16T04:21:13;2.90;99.90
1594;DHT22;790;47.000;16.084;2022-12-16T04:27:51;2.90;99.90
1594;DHT22;790;47.000;16.084;2022-12-16T04:34:12;2.90;99.90
1594;DHT22;790;47.000;16.084;2022-12-16T04:40:47;2.90;99.90
1594;DHT22;790;47.000;16.084;2022-12-16T04:47:25;3.00;99.90
1594;DHT22;790;47.000;16.084;2022-12-16T04:54:02;3.00;99.90
1594;DHT22;790;47.000;16.084;2022-12-16T05:00:42;3.00;99.90
1594;DHT22;790;47.000;16.084;2022-12-16T05:07:21;3.00;99.90
1594;DHT22;790;47.000;16.084;2022-12-16T05:13:59;2.90;99.90
1594;DHT22;790;47.000;16.084;2022-12-16T05:25:33;2.90;99.90
1594;DHT22;790;47.000;16.084;2022-12-16T05:32:26;3.00;99.90
1594;DHT22;790;47.000;16.084;2022-12-16T05:38:51;3.10;99.90
1594;DHT22;790;47.000;16.084;2022-12-16T05:45:18;3.10;99.90
1594;DHT22;790;47.000;16.084;2022-12-16T05:51:43;3.00;99.90
1594;DHT22;790;47.000;16.084;2022-12-16T05:58:08;3.10;99.90
1594;DHT22;790;47.000;16.084;2022-12-16T06:08:37;3.00;99.90
1594;DHT22;790;47.000;16.084;2022-12-16T06:15:15;2.90;99.90
1594;DHT22;790;47.000;16.084;2022-12-16T06:26:20;2.90;99.90
1594;DHT22;790;47.000;16.084;2022-12-16T06:32:45;3.00;99.90
1594;DHT22;790;47.000;16.084;2022-12-16T06:39:21;2.90;99.90
1594;DHT22;790;47.000;16.084;2022-12-16T06:45:47;3.00;99.90
1594;DHT22;790;47.000;16.084;2022-12-16T06:52:12;3.00;99.90
1594;DHT22;790;47.000;16.084;2022-12-16T06:58:36;3.00;99.90
1594;DHT22;790;47.000;16.084;2022-12-16T07:05:02;3.00;99.90
1594;DHT22;790;47.000;16.084;2022-12-16T07:11:27;3.00;99.90
1594;DHT22;790;47.000;16.084;2022-12-16T07:17:52;3.00;99.90
1594;DHT22;790;47.000;16.084;2022-12-16T07:29:27;3.10;99.90
1594;DHT22;790;47.000;16.084;2022-12-16T07:36:06;3.10;99.90
1594;DHT22;790;47.000;16.084;2022-12-16T07:42:45;3.10;99.90
1594;DHT22;790;47.000;16.084;2022-12-16T07:49:25;3.10;99.90
1594;DHT22;790;47.000;16.084;2022-12-16T07:56:04;3.00;99.90
1594;DHT22;790;47.000;16.084;2022-12-16T08:02:42;3.10;99.90
1594;DHT22;790;47.000;16.084;2022-12-16T08:09:22;3.10;99.90
1594;DHT22;790;47.000;16.084;2022-12-16T08:16:00;3.10;99.90
1594;DHT22;790;47.000;16.084;2022-12-16T08:22:39;3.00;99.90
1594;DHT22;790;47.000;16.084;2022-12-16T08:29:40;3.10;99.90
1594;DHT22;790;47.000;16.084;2022-12-16T08:36:19;3.00;99.90
1594;DHT22;790;47.000;16.084;2022-12-16T08:42:57;3.00;99.90
1594;DHT22;790;47.000;16.084;2022-12-16T08:49:37;3.20;99.90
1594;DHT22;790;47.000;16.084;2022-12-16T08:56:15;3.20;99.90
1594;DHT22;790;47.000;16.084;2022-12-16T09:02:54;3.30;99.90
1594;DHT22;790;47.000;16.084;2022-12-16T09:09:34;3.30;99.90
1594;DHT22;790;47.000;16.084;2022-12-16T09:16:12;3.30;99.90
1594;DHT22;790;47.000;16.084;2022-12-16T09:22:51;3.40;99.90
1594;DHT22;790;47.000;16.084;2022-12-16T09:29:41;3.40;99.90
1594;DHT22;790;47.000;16.084;2022-12-16T09:36:19;3.40;99.90
1594;DHT22;790;47.000;16.084;2022-12-16T09:43:03;3.40;99.90
1594;DHT22;790;47.000;16.084;2022-12-16T09:49:51;3.40;99.90
1594;DHT22;790;47.000;16.084;2022-12-16T09:56:32;3.30;99.90
1594;DHT22;790;47.000;16.084;2022-12-16T10:03:15;3.40;99.90
1594;DHT22;790;47.000;16.084;2022-12-16T10:10:05;3.30;99.90
1594;DHT22;790;47.000;16.084;2022-12-16T10:16:50;3.40;99.90
1594;DHT22;790;47.000;16.084;2022-12-16T10:23:37;3.40;99.90
1594;DHT22;790;47.000;16.084;2022-12-16T10:30:18;3.40;99.90
1594;DHT22;790;47.000;16.084;2022-12-16T10:36:57;3.40;99.90
1594;DHT22;790;47.000;16.084;2022-12-16T10:43:39;3.50;99.90
1594;DHT22;790;47.000;16.084;2022-12-16T10:50:21;3.30;99.90
1594;DHT22;790;47.000;16.084;2022-12-16T10:57:04;3.20;99.90
1594;DHT22;790;47.000;16.084;2022-12-16T11:03:46;3.20;99.90
1594;DHT22;790;47.000;16.084;2022-12-16T11:10:40;3.40;99.90
1594;DHT22;790;47.000;16.084;2022-12-16T11:17:22;3.30;99.90
1594;DHT22;790;47.000;16.084;2022-12-16T11:28:36;3.30;99.90
1594;DHT22;790;47.000;16.084;2022-12-16T11:35:02;3.50;99.90
1594;DHT22;790;47.000;16.084;2022-12-16T11:41:30;3.50;99.90
1594;DHT22;790;47.000;16.084;2022-12-16T11:48:04;3.50;99.90
1594;DHT22;790;47.000;16.084;2022-12-16T11:54:35;3.50;99.90
1594;DHT22;790;47.000;16.084;2022-12-16T12:01:09;3.50;99.90
1594;DHT22;790;47.000;16.084;2022-12-16T12:07:42;3.50;99.90
1594;DHT22;790;47.000;16.084;2022-12-16T12:14:28;3.50;99.90
1594;DHT22;790;47.000;16.084;2022-12-16T12:21:01;3.60;99.90
1594;DHT22;790;47.000;16.084;2022-12-16T12:27:58;3.60;99.90
1594;DHT22;790;47.000;16.084;2022-12-16T12:34:34;3.60;99.90
1594;DHT22;790;47.000;16.084;2022-12-16T12:41:10;3.70;99.90
1594;DHT22;790;47.000;16.084;2022-12-16T12:47:46;3.70;99.90
1594;DHT22;790;47.000;16.084;2022-12-16T12:54:31;3.70;99.90
1594;DHT22;790;47.000;16.084;2022-12-16T13:01:00;3.60;99.90
1594;DHT22;790;47.000;16.084;2022-12-16T13:07:27;3.60;99.90
1594;DHT22;790;47.000;16.084;2022-12-16T13:13:55;3.50;99.90
1594;DHT22;790;47.000;16.084;2022-12-16T13:20:36;3.60;99.90
1594;DHT22;790;47.000;16.084;2022-12-16T13:32:17;3.50;99.90
1594;DHT22;790;47.000;16.084;2022-12-16T13:38:57;3.50;99.90
1594;DHT22;790;47.000;16.084;2022-12-16T13:45:40;3.70;99.90
1594;DHT22;790;47.000;16.084;2022-12-16T13:52:27;3.60;99.90
1594;DHT22;790;47.000;16.084;2022-12-16T13:59:14;3.50;99.90
1594;DHT22;790;47.000;16.084;2022-12-16T14:05:54;3.60;99.90
1594;DHT22;790;47.000;16.084;2022-12-16T14:12:45;3.80;99.90
1594;DHT22;790;47.000;16.084;2022-12-16T14:19:31;3.60;99.90
1594;DHT22;790;47.000;16.084;2022-12-16T14:26:12;3.60;99.90
1594;DHT22;790;47.000;16.084;2022-12-16T14:32:52;3.60;99.90
1594;DHT22;790;47.000;16.084;2022-12-16T14:39:35;3.60;99.90
1594;DHT22;790;47.000;16.084;2022-12-16T14:46:26;3.60;99.90
1594;DHT22;790;47.000;16.084;2022-12-16T14:53:20;3.50;99.90
1594;DHT22;790;47.000;16.084;2022-12-16T15:00:08;3.40;99.90
1594;DHT22;790;47.000;16.084;2022-12-16T15:06:50;3.50;99.90
1594;DHT22;790;47.000;16.084;2022-12-16T15:13:31;3.50;99.90
1594;DHT22;790;47.000;16.084;2022-12-16T15:20:26;3.50;99.90
1594;DHT22;790;47.000;16.084;2022-12-16T15:31:12;3.50;99.90
1594;DHT22;790;47.000;16.084;2022-12-16T15:37:38;3.50;99.90
1594;DHT22;790;47.000;16.084;2022-12-16T15:44:17;3.40;99.90
1594;DHT22;790;47.000;16.084;2022-12-16T15:50:52;3.50;99.90
1594;DHT22;790;47.000;16.084;2022-12-16T15:57:27;3.50;99.90
1594;DHT22;790;47.000;16.084;2022-12-16T16:03:54;3.50;99.90
1594;DHT22;790;47.000;16.084;2022-12-16T16:10:23;3.40;99.90
1594;DHT22;790;47.000;16.084;2022-12-16T16:16:48;3.50;99.90
1594;DHT22;790;47.000;16.084;2022-12-16T16:23:13;3.60;99.90
1594;DHT22;790;47.000;16.084;2022-12-16T16:26:15;3.60;99.90
1594;DHT22;790;47.000;16.084;2022-12-16T16:32:57;3.60;99.90
1594;DHT22;790;47.000;16.084;2022-12-16T16:39:35;3.60;99.90
1594;DHT22;790;47.000;16.084;2022-12-16T16:46:27;3.60;99.90
1594;DHT22;790;47.000;16.084;2022-12-16T16:53:12;3.60;99.90
1594;DHT22;790;47.000;16.084;2022-12-16T16:59:51;3.60;99.90
1594;DHT22;790;47.000;16.084;2022-12-16T17:06:32;3.60;99.90
1594;DHT22;790;47.000;16.084;2022-12-16T17:13:10;3.70;99.90
1594;DHT22;790;47.000;16.084;2022-12-16T17:19:50;3.60;99.90
1594;DHT22;790;47.000;16.084;2022-12-16T17:30:25;3.50;99.90
1594;DHT22;790;47.000;16.084;2022-12-16T17:36:50;3.60;99.90
1594;DHT22;790;47.000;16.084;2022-12-16T17:43:15;3.70;99.90
1594;DHT22;790;47.000;16.084;2022-12-16T17:49:41;3.60;99.90
1594;DHT22;790;47.000;16.084;2022-12-16T17:56:03;3.60;99.90
1594;DHT22;790;47.000;16.084;2022-12-16T18:02:28;3.60;99.90
1594;DHT22;790;47.000;16.084;2022-12-16T18:08:54;3.70;99.90
1594;DHT22;790;47.000;16.084;2022-12-16T18:15:19;3.70;99.90
1594;DHT22;790;47.000;16.084;2022-12-16T18:21:44;3.60;99.90
1594;DHT22;790;47.000;16.084;2022-12-16T18:32:35;3.70;99.90
1594;DHT22;790;47.000;16.084;2022-12-16T18:39:13;3.70;99.90
1594;DHT22;790;47.000;16.084;2022-12-16T18:45:52;3.70;99.90
1594;DHT22;790;47.000;16.084;2022-12-16T18:52:32;3.60;99.90
1594;DHT22;790;47.000;16.084;2022-12-16T18:59:10;3.70;99.90
1594;DHT22;790;47.000;16.084;2022-12-16T19:05:52;3.70;99.90
1594;DHT22;790;47.000;16.084;2022-12-16T19:12:32;3.70;99.90
1594;DHT22;790;47.000;16.084;2022-12-16T19:19:11;3.80;99.90
1594;DHT22;790;47.000;16.084;2022-12-16T19:25:55;3.70;99.90
1594;DHT22;790;47.000;16.084;2022-12-16T19:32:56;3.70;99.90
1594;DHT22;790;47.000;16.084;2022-12-16T19:39:35;3.70;99.90
1594;DHT22;790;47.000;16.084;2022-12-16T19:46:12;3.60;99.90
1594;DHT22;790;47.000;16.084;2022-12-16T19:52:52;3.50;99.90
1594;DHT22;790;47.000;16.084;2022-12-16T19:59:30;3.50;99.90
1594;DHT22;790;47.000;16.084;2022-12-16T20:06:09;3.50;99.90
1594;DHT22;790;47.000;16.084;2022-12-16T20:12:49;3.50;99.90
1594;DHT22;790;47.000;16.084;2022-12-16T20:19:38;3.60;99.90
1594;DHT22;790;47.000;16.084;2022-12-16T20:26:16;3.50;99.90
1594;DHT22;790;47.000;16.084;2022-12-16T20:33:05;3.40;99.90
1594;DHT22;790;47.000;16.084;2022-12-16T20:39:42;3.50;99.90
1594;DHT22;790;47.000;16.084;2022-12-16T20:46:21;3.40;99.90
1594;DHT22;790;47.000;16.084;2022-12-16T20:53:01;3.40;99.90
1594;DHT22;790;47.000;16.084;2022-12-16T20:59:38;3.50;99.90
1594;DHT22;790;47.000;16.084;2022-12-16T21:06:16;3.50;99.90
1594;DHT22;790;47.000;16.084;2022-12-16T21:12:56;3.40;99.90
1594;DHT22;790;47.000;16.084;2022-12-16T21:19:41;3.40;99.90
1594;DHT22;790;47.000;16.084;2022-12-16T21:26:20;3.50;99.90
1594;DHT22;790;47.000;16.084;2022-12-16T21:33:19;3.40;99.90
1594;DHT22;790;47.000;16.084;2022-12-16T21:39:58;3.30;99.90
1594;DHT22;790;47.000;16.084;2022-12-16T21:46:57;3.30;99.90
1594;DHT22;790;47.000;16.084;2022-12-16T21:53:36;3.30;99.90
1594;DHT22;790;47.000;16.084;2022-12-16T22:00:15;3.30;99.90
1594;DHT22;790;47.000;16.084;2022-12-16T22:06:54;3.40;99.90
1594;DHT22;790;47.000;16.084;2022-12-16T22:13:34;3.40;99.90
1594;DHT22;790;47.000;16.084;2022-12-16T22:20:13;3.40;99.90
1594;DHT22;790;47.000;16.084;2022-12-16T22:26:51;3.50;99.90
1594;DHT22;790;47.000;16.084;2022-12-16T22:33:31;3.30;99.90
1594;DHT22;790;47.000;16.084;2022-12-16T22:40:11;3.40;99.90
1594;DHT22;790;47.000;16.084;2022-12-16T22:46:50;3.40;99.90
1594;DHT22;790;47.000;16.084;2022-12-16T22:53:29;3.40;99.90
1594;DHT22;790;47.000;16.084;2022-12-16T23:00:09;3.40;99.90
1594;DHT22;790;47.000;16.084;2022-12-16T23:06:46;3.20;99.90
1594;DHT22;790;47.000;16.084;2022-12-16T23:13:31;3.20;99.90
1594;DHT22;790;47.000;16.084;2022-12-16T23:20:10;3.20;99.90
1594;DHT22;790;47.000;16.084;2022-12-16T23:26:49;3.30;99.90
1594;DHT22;790;47.000;16.084;2022-12-16T23:33:40;3.40;99.90
1594;DHT22;790;47.000;16.084;2022-12-16T23:36:24;3.40;99.90
1594;DHT22;790;47.000;16.084;2022-12-16T23:42:48;3.40;99.90
1594;DHT22;790;47.000;16.084;2022-12-16T23:49:15;3.40;99.90
1594;DHT22;790;47.000;16.084;2022-12-16T23:55:39;3.30;99.90
